Time;durP1;ratioP1;P1;durP2;ratioP2;P2;SDS_P1;SDS_P2;PMS_P1;PMS_P2;Temp;Humidity;BMP_temperature;BMP_pressure;BME280_temperature;BME280_humidity;BME280_pressure;Samples;Min_cycle;Max_cycle;Signal;HPM_P1;HPM_P2
2022/05/29 00:00:08;;;;;;;23.10;6.57;;;;;;;;;;4987085;28;20481;-62
2022/05/29 00:02:34;;;;;;;20.25;2.88;;;;;;;;;;4989842;28;20040;-63
2022/05/29 00:05:02;;;;;;;19.27;3.75;;;;;;;;;;4978880;28;20044;-62
2022/05/29 00:07:27;;;;;;;20.17;3.13;;;;;;;;;;4982133;28;20047;-61
2022/05/29 00:09:54;;;;;;;20.17;2.65;;;;;;;;;;4985820;28;20281;-63
2022/05/29 00:12:21;;;;;;;12.85;2.22;;;;;;;;;;4987574;28;20163;-61
2022/05/29 00:14:49;;;;;;;18.17;3.53;;;;;;;;;;5001201;28;20150;-60
2022/05/29 00:17:15;;;;;;;12.57;3.00;;;;;;;;;;4984583;28;20506;-62
2022/05/29 00:19:40;;;;;;;16.63;3.70;;;;;;;;;;5000813;28;20064;-62
2022/05/29 00:22:09;;;;;;;14.20;2.63;;;;;;;;;;5003413;28;20044;-62
2022/05/29 00:24:35;;;;;;;20.33;5.13;;;;;;;;;;4986761;28;20148;-62
2022/05/29 00:27:00;;;;;;;19.30;5.38;;;;;;;;;;4987190;28;20676;-62
2022/05/29 00:29:26;;;;;;;15.85;4.95;;;;;;;;;;4984158;28;20424;-62
2022/05/29 00:31:51;;;;;;;20.92;4.15;;;;;;;;;;4987652;28;20041;-62
2022/05/29 00:34:17;;;;;;;14.57;3.80;;;;;;;;;;4988218;28;20543;-62
2022/05/29 00:36:44;;;;;;;17.70;4.60;;;;;;;;;;4988307;28;20187;-62
2022/05/29 00:39:12;;;;;;;22.20;3.17;;;;;;;;;;4987869;28;20552;-64
2022/05/29 00:41:38;;;;;;;23.30;3.42;;;;;;;;;;5002441;28;20479;-64
2022/05/29 00:44:15;;;;;;;17.25;2.78;;;;;;;;;;4980760;28;20414;-61
2022/05/29 00:46:53;;;;;;;14.35;2.50;;;;;;;;;;4964007;28;20405;-61
2022/05/29 00:49:20;;;;;;;22.52;3.55;;;;;;;;;;4983409;28;20407;-62
2022/05/29 00:51:49;;;;;;;16.73;2.78;;;;;;;;;;4985830;28;20188;-62
2022/05/29 00:54:15;;;;;;;15.40;2.60;;;;;;;;;;4987429;28;20514;-62
2022/05/29 00:56:41;;;;;;;13.60;2.28;;;;;;;;;;4976975;28;20041;-63
2022/05/29 00:59:09;;;;;;;13.50;3.03;;;;;;;;;;4985901;28;20056;-64
2022/05/29 01:01:35;;;;;;;20.48;3.00;;;;;;;;;;4983273;28;20085;-63
2022/05/29 01:04:00;;;;;;;24.92;3.28;;;;;;;;;;4984396;28;20052;-62
2022/05/29 01:06:28;;;;;;;14.27;2.88;;;;;;;;;;4972348;28;20030;-63
2022/05/29 01:08:54;;;;;;;15.15;3.53;;;;;;;;;;4971381;28;20576;-62
2022/05/29 01:11:38;;;;;;;17.13;2.65;;;;;;;;;;4969648;28;20555;-63
2022/05/29 01:14:15;;;;;;;19.60;3.65;;;;;;;;;;4975582;28;20183;-63
2022/05/29 01:16:59;;;;;;;17.88;2.92;;;;;;;;;;4970592;28;20448;-62
2022/05/29 01:19:35;;;;;;;12.60;2.83;;;;;;;;;;4971566;28;21692;-62
2022/05/29 01:22:29;;;;;;;21.38;2.83;;;;;;;;;;4973062;28;20283;-63
2022/05/29 01:25:13;;;;;;;16.75;2.38;;;;;;;;;;4971444;28;20267;-62
2022/05/29 01:27:54;;;;;;;17.55;2.60;;;;;;;;;;4972663;28;20068;-61
2022/05/29 01:30:21;;;;;;;16.45;2.92;;;;;;;;;;4995288;28;20525;-62
2022/05/29 01:33:03;;;;;;;13.77;3.42;;;;;;;;;;4980220;28;20041;-62
2022/05/29 01:35:35;;;;;;;17.77;3.10;;;;;;;;;;4972155;28;20045;-62
2022/05/29 01:38:08;;;;;;;12.38;1.88;;;;;;;;;;4981985;28;20025;-62
2022/05/29 01:40:33;;;;;;;14.77;2.17;;;;;;;;;;4981563;28;20397;-62
2022/05/29 01:43:10;;;;;;;15.95;2.05;;;;;;;;;;4969551;28;20391;-62
2022/05/29 01:45:53;;;;;;;13.95;2.22;;;;;;;;;;4972891;28;22390;-62
2022/05/29 01:48:24;;;;;;;14.40;2.13;;;;;;;;;;4972334;28;20238;-63
2022/05/29 01:51:11;;;;;;;17.73;2.50;;;;;;;;;;4995305;28;20580;-61
2022/05/29 01:53:39;;;;;;;13.43;2.72;;;;;;;;;;4989547;28;20548;-61
2022/05/29 01:56:10;;;;;;;13.90;2.35;;;;;;;;;;4980206;28;20341;-61
2022/05/29 01:58:38;;;;;;;14.35;2.42;;;;;;;;;;4969301;28;20179;-62
2022/05/29 02:01:06;;;;;;;15.98;2.45;;;;;;;;;;4971693;28;20247;-61
2022/05/29 02:03:34;;;;;;;12.23;1.98;;;;;;;;;;4967533;28;20046;-61
2022/05/29 02:06:04;;;;;;;10.73;2.15;;;;;;;;;;4974457;28;20040;-61
2022/05/29 02:08:36;;;;;;;12.55;2.30;;;;;;;;;;4991102;28;20040;-60
2022/05/29 02:11:06;;;;;;;12.35;2.65;;;;;;;;;;4989295;28;20068;-61
2022/05/29 02:13:33;;;;;;;9.43;2.40;;;;;;;;;;4987693;28;20041;-61
2022/05/29 02:16:08;;;;;;;13.15;2.50;;;;;;;;;;4989541;28;20428;-61
2022/05/29 02:18:53;;;;;;;15.57;2.83;;;;;;;;;;4990183;28;20303;-62
2022/05/29 02:21:39;;;;;;;18.10;3.05;;;;;;;;;;4984147;28;20485;-61
2022/05/29 02:24:10;;;;;;;12.35;3.13;;;;;;;;;;4968173;28;20309;-62
2022/05/29 02:26:37;;;;;;;13.20;3.00;;;;;;;;;;4969940;28;20030;-61
2022/05/29 02:29:10;;;;;;;12.60;2.80;;;;;;;;;;4970714;28;20041;-61
2022/05/29 02:32:02;;;;;;;10.02;2.30;;;;;;;;;;4969806;28;20813;-61
2022/05/29 02:34:40;;;;;;;16.45;2.58;;;;;;;;;;4968102;28;20057;-62
2022/05/29 02:37:13;;;;;;;11.20;2.67;;;;;;;;;;4971140;28;20133;-62
2022/05/29 02:39:47;;;;;;;17.30;3.70;;;;;;;;;;4963240;28;20373;-61
2022/05/29 02:42:12;;;;;;;17.27;3.38;;;;;;;;;;4968867;28;20037;-61
2022/05/29 02:44:37;;;;;;;15.77;2.70;;;;;;;;;;4968693;28;20079;-62
2022/05/29 02:47:06;;;;;;;19.63;3.03;;;;;;;;;;4969969;28;26147;-62
2022/05/29 02:49:35;;;;;;;11.98;2.75;;;;;;;;;;4981988;28;20053;-62
2022/05/29 02:52:09;;;;;;;15.88;3.13;;;;;;;;;;4969050;28;20722;-62
2022/05/29 02:54:34;;;;;;;15.13;3.63;;;;;;;;;;4969887;28;20256;-61
2022/05/29 02:57:00;;;;;;;17.23;3.00;;;;;;;;;;4969772;28;20413;-63
2022/05/29 02:59:27;;;;;;;12.73;2.75;;;;;;;;;;4970322;28;20046;-61
2022/05/29 03:01:55;;;;;;;15.57;2.80;;;;;;;;;;4968650;28;20042;-62
2022/05/29 03:04:38;;;;;;;12.07;2.33;;;;;;;;;;4968928;28;20680;-62
2022/05/29 03:07:23;;;;;;;9.40;2.30;;;;;;;;;;4974580;28;20214;-61
2022/05/29 03:09:51;;;;;;;10.43;2.50;;;;;;;;;;4976928;28;20434;-62
2022/05/29 03:12:28;;;;;;;16.58;2.65;;;;;;;;;;4967729;28;20076;-62
2022/05/29 03:14:53;;;;;;;12.02;2.67;;;;;;;;;;4973148;28;20441;-61
2022/05/29 03:17:24;;;;;;;15.68;2.88;;;;;;;;;;4967150;28;20692;-61
2022/05/29 03:20:00;;;;;;;16.52;2.88;;;;;;;;;;4961645;28;20104;-62
2022/05/29 03:22:45;;;;;;;14.38;2.97;;;;;;;;;;4969544;28;20044;-62
2022/05/29 03:25:22;;;;;;;16.73;3.00;;;;;;;;;;4985992;28;20146;-63
2022/05/29 03:27:48;;;;;;;13.95;2.25;;;;;;;;;;4967789;28;20303;-62
2022/05/29 03:30:17;;;;;;;12.88;2.75;;;;;;;;;;4968760;28;20075;-63
2022/05/29 03:32:42;;;;;;;15.10;3.60;;;;;;;;;;4969333;28;20353;-64
2022/05/29 03:35:15;;;;;;;16.85;2.90;;;;;;;;;;4967502;28;20080;-62
2022/05/29 03:37:40;;;;;;;12.65;3.08;;;;;;;;;;4981333;28;20239;-62
2022/05/29 03:40:06;;;;;;;19.48;3.22;;;;;;;;;;4970199;28;20608;-62
2022/05/29 03:42:31;;;;;;;9.52;2.10;;;;;;;;;;4962080;28;20060;-63
2022/05/29 03:44:57;;;;;;;12.13;2.08;;;;;;;;;;4969588;28;20379;-61
2022/05/29 03:47:22;;;;;;;13.85;2.40;;;;;;;;;;4967351;28;20512;-63
2022/05/29 03:49:48;;;;;;;13.27;2.38;;;;;;;;;;4967849;28;20588;-62
2022/05/29 03:52:13;;;;;;;16.55;2.70;;;;;;;;;;4967561;28;20219;-63
2022/05/29 03:54:38;;;;;;;15.60;2.85;;;;;;;;;;4970974;28;20069;-61
2022/05/29 03:57:04;;;;;;;14.68;2.30;;;;;;;;;;4954689;28;20076;-62
2022/05/29 03:59:29;;;;;;;20.02;3.42;;;;;;;;;;4982151;28;20072;-63
2022/05/29 04:01:54;;;;;;;23.05;3.40;;;;;;;;;;4987822;28;20041;-63
2022/05/29 04:04:22;;;;;;;21.98;3.30;;;;;;;;;;4983669;28;20041;-64
2022/05/29 04:06:47;;;;;;;17.35;3.60;;;;;;;;;;4976400;28;20045;-64
2022/05/29 04:12:04;;;;;;;15.45;3.30;;;;;;;;;;4970314;28;20066;-63
2022/05/29 04:14:30;;;;;;;21.35;3.28;;;;;;;;;;4967008;28;20045;-63
2022/05/29 04:16:56;;;;;;;19.60;3.55;;;;;;;;;;4968909;28;20397;-63
2022/05/29 04:19:21;;;;;;;17.60;4.05;;;;;;;;;;4968073;28;20437;-63
2022/05/29 04:21:51;;;;;;;16.73;3.10;;;;;;;;;;4968971;28;20037;-65
2022/05/29 04:24:20;;;;;;;18.58;4.35;;;;;;;;;;4939135;28;20676;-64
2022/05/29 04:26:52;;;;;;;19.67;3.58;;;;;;;;;;4966070;28;20132;-64
2022/05/29 04:29:18;;;;;;;19.02;4.10;;;;;;;;;;4966315;28;20487;-62
2022/05/29 04:34:28;;;;;;;14.30;2.90;;;;;;;;;;4982941;28;20373;-63
2022/05/29 04:36:53;;;;;;;18.30;3.38;;;;;;;;;;4976308;28;20215;-63
2022/05/29 04:39:19;;;;;;;16.83;3.05;;;;;;;;;;4961666;28;20127;-62
2022/05/29 04:41:46;;;;;;;16.23;2.70;;;;;;;;;;4965139;28;20524;-63
2022/05/29 04:44:12;;;;;;;14.80;3.13;;;;;;;;;;4982927;28;20030;-62
2022/05/29 04:46:37;;;;;;;14.38;2.60;;;;;;;;;;4968879;28;20090;-62
2022/05/29 04:49:04;;;;;;;12.82;2.90;;;;;;;;;;4961580;28;20034;-63
2022/05/29 04:51:30;;;;;;;13.35;3.13;;;;;;;;;;4960959;28;20038;-62
2022/05/29 04:53:55;;;;;;;21.02;3.17;;;;;;;;;;4975152;28;20092;-62
2022/05/29 04:56:21;;;;;;;16.38;2.97;;;;;;;;;;4968168;28;20278;-63
2022/05/29 04:58:48;;;;;;;13.07;2.72;;;;;;;;;;4968868;28;20041;-64
2022/05/29 05:01:14;;;;;;;19.10;3.50;;;;;;;;;;4964535;28;20139;-62
2022/05/29 05:03:39;;;;;;;13.90;2.88;;;;;;;;;;4969123;28;20260;-62
2022/05/29 05:06:05;;;;;;;17.95;3.40;;;;;;;;;;4965892;28;20500;-63
2022/05/29 05:08:33;;;;;;;11.80;2.60;;;;;;;;;;4968390;28;20132;-64
2022/05/29 05:10:58;;;;;;;13.65;2.10;;;;;;;;;;4969648;28;20084;-61
2022/05/29 05:13:23;;;;;;;14.40;2.95;;;;;;;;;;4967629;28;20070;-62
2022/05/29 05:15:49;;;;;;;14.55;2.53;;;;;;;;;;4968321;28;20277;-63
2022/05/29 05:18:15;;;;;;;15.20;2.92;;;;;;;;;;4967879;28;20085;-63
2022/05/29 05:20:40;;;;;;;16.73;2.47;;;;;;;;;;4964735;28;20152;-62
2022/05/29 05:23:06;;;;;;;17.35;2.90;;;;;;;;;;4965779;28;20132;-64
2022/05/29 05:25:33;;;;;;;13.90;2.55;;;;;;;;;;4972627;28;20337;-63
2022/05/29 05:27:59;;;;;;;15.27;2.60;;;;;;;;;;4969555;28;20442;-63
2022/05/29 05:30:24;;;;;;;13.35;2.55;;;;;;;;;;4967630;28;20084;-64
2022/05/29 05:32:50;;;;;;;9.02;2.00;;;;;;;;;;4966189;28;20732;-64
2022/05/29 05:35:15;;;;;;;8.57;1.80;;;;;;;;;;4979920;28;20033;-63
2022/05/29 05:37:42;;;;;;;8.23;1.98;;;;;;;;;;4966777;28;20145;-65
2022/05/29 05:40:09;;;;;;;9.88;2.03;;;;;;;;;;4967948;28;20053;-65
2022/05/29 05:42:35;;;;;;;8.02;1.63;;;;;;;;;;4965568;28;20313;-63
2022/05/29 05:45:00;;;;;;;8.70;1.63;;;;;;;;;;4961912;28;20047;-63
2022/05/29 05:47:26;;;;;;;7.20;1.60;;;;;;;;;;4966112;28;20168;-64
2022/05/29 05:49:52;;;;;;;6.03;1.25;;;;;;;;;;4971444;28;20455;-63
2022/05/29 05:52:18;;;;;;;6.80;1.70;;;;;;;;;;4970828;28;20215;-63
2022/05/29 05:54:44;;;;;;;5.88;1.88;;;;;;;;;;4972042;28;20049;-63
2022/05/29 05:57:19;;;;;;;6.40;2.00;;;;;;;;;;4990206;28;20037;-64
2022/05/29 05:59:44;;;;;;;7.57;1.20;;;;;;;;;;4971582;28;20042;-64
2022/05/29 06:02:12;;;;;;;6.20;1.35;;;;;;;;;;4971635;28;20038;-63
2022/05/29 06:04:38;;;;;;;5.22;1.33;;;;;;;;;;4957279;28;20064;-63
2022/05/29 06:07:06;;;;;;;6.15;1.48;;;;;;;;;;4972025;28;20038;-66
2022/05/29 06:09:33;;;;;;;9.15;1.38;;;;;;;;;;4987768;28;20153;-64
2022/05/29 06:12:03;;;;;;;7.68;1.50;;;;;;;;;;4988548;28;20584;-64
2022/05/29 06:14:33;;;;;;;9.43;1.60;;;;;;;;;;4989806;28;20041;-63
2022/05/29 06:16:58;;;;;;;11.07;1.90;;;;;;;;;;4972017;28;20049;-63
2022/05/29 06:19:26;;;;;;;12.38;2.33;;;;;;;;;;4986378;28;20046;-64
2022/05/29 06:21:54;;;;;;;10.95;2.08;;;;;;;;;;4967276;28;20565;-64
2022/05/29 06:24:21;;;;;;;19.63;2.47;;;;;;;;;;4966684;28;20431;-64
2022/05/29 06:26:49;;;;;;;11.63;2.10;;;;;;;;;;4966339;28;20033;-64
2022/05/29 06:29:14;;;;;;;15.07;3.20;;;;;;;;;;4971311;28;20043;-64
2022/05/29 06:31:42;;;;;;;14.43;2.40;;;;;;;;;;4980850;28;20033;-64
2022/05/29 06:34:07;;;;;;;11.02;2.60;;;;;;;;;;4941740;28;20056;-65
2022/05/29 06:36:33;;;;;;;19.08;2.85;;;;;;;;;;4967927;28;20498;-63
2022/05/29 06:38:59;;;;;;;14.50;2.53;;;;;;;;;;4974865;28;20547;-63
2022/05/29 06:41:25;;;;;;;17.05;3.00;;;;;;;;;;4970158;28;20097;-65
2022/05/29 06:43:51;;;;;;;12.43;2.75;;;;;;;;;;4967622;28;20591;-63
2022/05/29 06:46:16;;;;;;;15.43;2.25;;;;;;;;;;4961183;28;20542;-64
2022/05/29 06:48:42;;;;;;;18.52;2.85;;;;;;;;;;4972160;28;20183;-62
2022/05/29 06:51:08;;;;;;;11.02;2.67;;;;;;;;;;4967136;28;20038;-64
2022/05/29 06:53:33;;;;;;;13.13;2.60;;;;;;;;;;4976821;28;20037;-61
2022/05/29 06:56:01;;;;;;;8.10;2.05;;;;;;;;;;4971953;28;20049;-65
2022/05/29 06:58:26;;;;;;;15.50;2.72;;;;;;;;;;4971436;28;20037;-65
2022/05/29 07:09:09;;;;;;;8.68;1.75;;;;;;;;;;4968024;28;20429;-65
2022/05/29 07:11:37;;;;;;;14.40;2.10;;;;;;;;;;4964754;28;20037;-62
2022/05/29 07:14:04;;;;;;;13.80;2.10;;;;;;;;;;4959674;28;20034;-62
2022/05/29 07:16:30;;;;;;;17.05;2.75;;;;;;;;;;4972454;28;20161;-63
2022/05/29 07:18:55;;;;;;;10.40;1.63;;;;;;;;;;4970811;28;20037;-63
2022/05/29 07:21:22;;;;;;;11.73;1.92;;;;;;;;;;4964701;28;20041;-65
2022/05/29 07:23:48;;;;;;;15.00;2.20;;;;;;;;;;4966448;28;22493;-63
2022/05/29 07:26:13;;;;;;;9.48;1.83;;;;;;;;;;4974529;28;20530;-65
2022/05/29 07:28:41;;;;;;;10.02;1.90;;;;;;;;;;4971369;28;20134;-64
2022/05/29 07:31:06;;;;;;;10.88;2.00;;;;;;;;;;4969214;28;20528;-63
2022/05/29 07:33:32;;;;;;;6.90;1.73;;;;;;;;;;4967469;28;20149;-66
2022/05/29 07:35:59;;;;;;;16.35;2.45;;;;;;;;;;4969821;28;20205;-63
2022/05/29 07:38:25;;;;;;;10.68;1.90;;;;;;;;;;4968953;28;20129;-64
2022/05/29 07:40:53;;;;;;;7.60;1.80;;;;;;;;;;4970391;28;20056;-64
2022/05/29 07:43:24;;;;;;;12.82;1.90;;;;;;;;;;4960061;28;20037;-64
2022/05/29 07:45:54;;;;;;;15.43;1.98;;;;;;;;;;4977388;28;20034;-63
2022/05/29 07:48:20;;;;;;;8.25;1.63;;;;;;;;;;4969782;28;20068;-63
2022/05/29 07:50:46;;;;;;;13.68;1.60;;;;;;;;;;4956087;28;20116;-64
2022/05/29 07:53:11;;;;;;;8.90;1.13;;;;;;;;;;4977239;28;20045;-63
2022/05/29 07:55:39;;;;;;;3.92;0.65;;;;;;;;;;4967070;28;20106;-64
2022/05/29 07:58:05;;;;;;;5.50;1.00;;;;;;;;;;4961472;28;20678;-65
2022/05/29 08:00:31;;;;;;;3.92;0.95;;;;;;;;;;4967141;28;20045;-63
2022/05/29 08:02:56;;;;;;;4.47;1.02;;;;;;;;;;4965574;28;20044;-65
2022/05/29 08:05:22;;;;;;;8.80;1.38;;;;;;;;;;4967199;28;20669;-64
2022/05/29 08:07:48;;;;;;;7.22;1.48;;;;;;;;;;4973471;28;20044;-62
2022/05/29 08:10:15;;;;;;;7.28;1.25;;;;;;;;;;4981829;28;20034;-64
2022/05/29 08:12:41;;;;;;;4.03;1.20;;;;;;;;;;4964948;28;20163;-66
2022/05/29 08:15:06;;;;;;;11.63;1.80;;;;;;;;;;4969368;28;20889;-66
2022/05/29 08:17:34;;;;;;;10.68;1.77;;;;;;;;;;4967571;28;20034;-65
2022/05/29 08:19:59;;;;;;;11.18;1.77;;;;;;;;;;4969521;28;21059;-67
2022/05/29 08:22:25;;;;;;;9.70;1.75;;;;;;;;;;4970663;28;20036;-65
2022/05/29 08:30:38;;;;;;;9.93;1.55;;;;;;;;;;4971764;28;20125;-64
2022/05/29 08:33:04;;;;;;;9.88;1.83;;;;;;;;;;4968438;28;20043;-66
2022/05/29 08:35:31;;;;;;;8.77;1.73;;;;;;;;;;4939768;28;20711;-66
2022/05/29 08:37:57;;;;;;;12.35;1.90;;;;;;;;;;4968718;28;20108;-66
2022/05/29 08:40:22;;;;;;;8.85;1.65;;;;;;;;;;4968463;28;20041;-67
2022/05/29 08:42:48;;;;;;;8.35;1.67;;;;;;;;;;4968290;28;21971;-67
2022/05/29 08:45:15;;;;;;;9.80;2.00;;;;;;;;;;4973544;28;20038;-65
2022/05/29 08:47:41;;;;;;;12.40;1.73;;;;;;;;;;4967511;28;20888;-67
2022/05/29 08:50:12;;;;;;;6.82;1.70;;;;;;;;;;4967520;28;20041;-68
2022/05/29 08:52:55;;;;;;;9.80;1.80;;;;;;;;;;4972512;28;20034;-67
2022/05/29 08:55:26;;;;;;;11.68;1.90;;;;;;;;;;4969655;28;20045;-66
2022/05/29 08:58:18;;;;;;;9.20;1.98;;;;;;;;;;4963156;28;20092;-65
2022/05/29 09:00:44;;;;;;;;;;;;;;;;;;4984588;28;20048;-67
2022/05/29 09:03:22;;;;;;;9.70;2.10;;;;;;;;;;4998851;28;19917;-65
2022/05/29 09:05:55;;;;;;;11.38;2.30;;;;;;;;;;4971739;28;20045;-66
2022/05/29 09:08:21;;;;;;;14.87;2.27;;;;;;;;;;4990176;28;20034;-67
2022/05/29 09:10:47;;;;;;;10.95;1.90;;;;;;;;;;4987854;28;22247;-66
2022/05/29 09:13:15;;;;;;;12.18;2.25;;;;;;;;;;4988715;28;20033;-66
2022/05/29 09:15:46;;;;;;;10.38;1.50;;;;;;;;;;4985146;28;20038;-65
2022/05/29 09:18:26;;;;;;;9.57;1.70;;;;;;;;;;4987182;28;20037;-64
2022/05/29 09:20:57;;;;;;;13.10;1.95;;;;;;;;;;4984445;28;20131;-67
2022/05/29 09:23:29;;;;;;;9.93;2.10;;;;;;;;;;4989500;28;20080;-64
2022/05/29 09:25:56;;;;;;;12.90;2.03;;;;;;;;;;4989914;28;20040;-66
2022/05/29 09:28:29;;;;;;;17.30;2.72;;;;;;;;;;4982243;28;20325;-66
2022/05/29 09:31:02;;;;;;;12.50;2.38;;;;;;;;;;4976092;28;20069;-66
2022/05/29 09:33:29;;;;;;;14.60;2.40;;;;;;;;;;4971475;28;20254;-66
2022/05/29 09:35:57;;;;;;;11.52;1.95;;;;;;;;;;4972275;28;20770;-66
2022/05/29 09:38:32;;;;;;;11.00;1.60;;;;;;;;;;4961417;28;20654;-66
2022/05/29 09:41:04;;;;;;;7.95;1.55;;;;;;;;;;4960802;28;20072;-66
2022/05/29 09:43:30;;;;;;;16.33;1.85;;;;;;;;;;4969201;28;20044;-67
2022/05/29 09:46:15;;;;;;;10.77;2.17;;;;;;;;;;4969444;28;20038;-66
2022/05/29 09:51:28;;;;;;;9.15;1.88;;;;;;;;;;4979627;28;20034;-64
2022/05/29 09:53:56;;;;;;;11.15;1.70;;;;;;;;;;4970490;28;20037;-67
2022/05/29 09:56:27;;;;;;;11.80;1.48;;;;;;;;;;4983866;28;20094;-67
2022/05/29 09:58:55;;;;;;;8.30;1.55;;;;;;;;;;4977655;28;20033;-67
2022/05/29 10:01:26;;;;;;;7.05;1.25;;;;;;;;;;4969412;28;20057;-65
2022/05/29 10:03:53;;;;;;;11.98;1.65;;;;;;;;;;4968129;28;20042;-66
2022/05/29 10:06:22;;;;;;;12.18;1.77;;;;;;;;;;4964568;28;20224;-66
2022/05/29 10:08:48;;;;;;;12.35;2.03;;;;;;;;;;4958376;28;20113;-66
2022/05/29 10:11:20;;;;;;;13.32;1.55;;;;;;;;;;4971997;28;20026;-65
2022/05/29 10:13:48;;;;;;;9.27;1.60;;;;;;;;;;4972764;28;20301;-68
2022/05/29 10:16:28;;;;;;;7.55;1.70;;;;;;;;;;4975153;28;20815;-65
2022/05/29 10:18:54;;;;;;;11.77;1.70;;;;;;;;;;4970444;28;20033;-67
2022/05/29 10:21:24;;;;;;;11.85;2.05;;;;;;;;;;4970137;28;20052;-66
2022/05/29 10:23:58;;;;;;;13.82;2.22;;;;;;;;;;4973437;28;20365;-66
2022/05/29 10:26:33;;;;;;;11.95;2.35;;;;;;;;;;4987668;28;20626;-66
2022/05/29 10:29:01;;;;;;;11.38;1.70;;;;;;;;;;5001577;28;21894;-65
2022/05/29 10:31:30;;;;;;;10.35;1.90;;;;;;;;;;4993999;28;20048;-65
2022/05/29 10:34:07;;;;;;;10.45;1.52;;;;;;;;;;4992480;28;20127;-65
2022/05/29 10:36:33;;;;;;;9.38;1.80;;;;;;;;;;4979890;28;20196;-66
2022/05/29 10:39:12;;;;;;;8.68;1.50;;;;;;;;;;4957012;28;20189;-68
2022/05/29 10:41:42;;;;;;;10.85;1.35;;;;;;;;;;4980810;28;20107;-65
2022/05/29 10:44:09;;;;;;;7.35;1.23;;;;;;;;;;4993627;28;20056;-66
2022/05/29 10:46:43;;;;;;;7.45;1.40;;;;;;;;;;5000938;28;20052;-65
2022/05/29 10:49:10;;;;;;;4.68;1.00;;;;;;;;;;4985553;28;20083;-67
2022/05/29 10:51:41;;;;;;;8.05;1.35;;;;;;;;;;4991359;28;20033;-68
2022/05/29 10:54:19;;;;;;;7.93;1.20;;;;;;;;;;4991106;28;20033;-67
2022/05/29 10:57:04;;;;;;;8.30;1.60;;;;;;;;;;4998981;28;20033;-68
2022/05/29 10:59:35;;;;;;;6.07;1.30;;;;;;;;;;4967834;28;20068;-64
2022/05/29 11:04:47;;;;;;;9.60;1.48;;;;;;;;;;4964289;28;20040;-67
2022/05/29 11:07:34;;;;;;;8.90;1.52;;;;;;;;;;4964664;28;20070;-64
2022/05/29 11:10:20;;;;;;;6.45;1.25;;;;;;;;;;4966802;28;20053;-66
2022/05/29 11:12:52;;;;;;;8.38;1.50;;;;;;;;;;4970461;28;20025;-64
2022/05/29 11:15:17;;;;;;;;;;;;;;;;;;5001125;28;20033;-66
2022/05/29 11:17:46;;;;;;;14.02;1.55;;;;;;;;;;4989034;28;20838;-64
2022/05/29 11:20:30;;;;;;;12.20;1.63;;;;;;;;;;4983519;28;20041;-66
2022/05/29 11:22:56;;;;;;;5.47;1.30;;;;;;;;;;4998532;28;20030;-67
2022/05/29 11:25:40;;;;;;;7.15;1.30;;;;;;;;;;4980242;28;20888;-66
2022/05/29 11:28:24;;;;;;;4.90;1.30;;;;;;;;;;4988732;28;20033;-70
2022/05/29 11:31:15;;;;;;;8.23;1.45;;;;;;;;;;4987940;28;20126;-68
2022/05/29 11:33:53;;;;;;;8.27;1.30;;;;;;;;;;4986917;28;20794;-67
2022/05/29 11:36:36;;;;;;;9.07;1.52;;;;;;;;;;4990974;28;20041;-69
2022/05/29 11:39:19;;;;;;;8.07;1.20;;;;;;;;;;4985289;28;20033;-68
2022/05/29 11:41:47;;;;;;;8.15;1.63;;;;;;;;;;5004220;28;20087;-67
2022/05/29 11:44:13;;;;;;;7.15;1.45;;;;;;;;;;4990848;28;20033;-66
2022/05/29 11:52:35;;;;;;;8.38;1.40;;;;;;;;;;4986759;28;20043;-66
2022/05/29 11:55:13;;;;;;;8.82;1.40;;;;;;;;;;4984512;28;20036;-67
2022/05/29 11:57:48;;;;;;;8.05;1.50;;;;;;;;;;4984856;28;20040;-68
2022/05/29 12:00:33;;;;;;;11.35;1.80;;;;;;;;;;4988468;28;20050;-68
2022/05/29 12:03:04;;;;;;;9.18;1.70;;;;;;;;;;4987309;28;20115;-67
2022/05/29 12:05:34;;;;;;;6.43;1.20;;;;;;;;;;4987719;28;20049;-68
2022/05/29 12:08:03;;;;;;;5.25;0.98;;;;;;;;;;4988940;28;20040;-65
2022/05/29 12:10:31;;;;;;;7.90;1.20;;;;;;;;;;4989820;28;20496;-67
2022/05/29 12:13:00;;;;;;;10.65;1.33;;;;;;;;;;4983562;28;20288;-67
2022/05/29 12:15:28;;;;;;;9.75;1.15;;;;;;;;;;4984496;28;20384;-65
2022/05/29 12:18:05;;;;;;;8.38;1.10;;;;;;;;;;4988664;28;20045;-67
2022/05/29 12:20:45;;;;;;;5.63;1.02;;;;;;;;;;4974330;28;20220;-68
2022/05/29 12:23:26;;;;;;;7.18;1.00;;;;;;;;;;4979750;28;20592;-68
2022/05/29 12:26:00;;;;;;;8.05;1.35;;;;;;;;;;4972420;28;20073;-63
2022/05/29 12:28:44;;;;;;;7.60;1.10;;;;;;;;;;4968388;28;20526;-65
2022/05/29 12:31:18;;;;;;;6.53;1.58;;;;;;;;;;4967917;28;20125;-65
2022/05/29 12:33:44;;;;;;;6.07;0.85;;;;;;;;;;4966125;28;20763;-65
2022/05/29 12:36:19;;;;;;;6.68;1.08;;;;;;;;;;4968495;28;20134;-65
2022/05/29 12:38:53;;;;;;;7.35;1.13;;;;;;;;;;4968828;28;20269;-65
2022/05/29 12:41:18;;;;;;;7.55;1.05;;;;;;;;;;4966770;28;20103;-65
2022/05/29 12:43:43;;;;;;;7.07;1.20;;;;;;;;;;4967632;28;20437;-66
2022/05/29 12:46:22;;;;;;;9.93;1.60;;;;;;;;;;4968585;28;20038;-64
2022/05/29 12:48:51;;;;;;;8.35;1.50;;;;;;;;;;4987736;28;20520;-63
2022/05/29 12:51:19;;;;;;;7.35;1.02;;;;;;;;;;4998771;28;20041;-64
2022/05/29 12:54:09;;;;;;;10.45;1.30;;;;;;;;;;4987958;28;20662;-65
2022/05/29 12:56:53;;;;;;;7.88;1.40;;;;;;;;;;4957824;28;20037;-66
2022/05/29 12:59:37;;;;;;;8.80;1.27;;;;;;;;;;4980758;28;20176;-66
2022/05/29 13:02:08;;;;;;;7.38;1.40;;;;;;;;;;5003967;28;20429;-64
2022/05/29 13:04:53;;;;;;;4.18;1.00;;;;;;;;;;4991119;28;20130;-67
2022/05/29 13:07:21;;;;;;;9.23;1.60;;;;;;;;;;4979998;28;20037;-65
2022/05/29 13:10:05;;;;;;;11.18;1.58;;;;;;;;;;5004750;28;20734;-66
2022/05/29 13:12:36;;;;;;;13.27;1.80;;;;;;;;;;4993327;28;20034;-66
2022/05/29 13:15:06;;;;;;;11.07;2.15;;;;;;;;;;4991384;28;20091;-67
2022/05/29 13:17:34;;;;;;;9.77;1.83;;;;;;;;;;4992118;28;20524;-64
2022/05/29 13:20:04;;;;;;;14.30;2.05;;;;;;;;;;4991779;28;20056;-66
2022/05/29 13:22:48;;;;;;;14.80;1.70;;;;;;;;;;4990562;28;20035;-67
2022/05/29 13:25:15;;;;;;;18.77;1.90;;;;;;;;;;4989641;28;20025;-66
2022/05/29 13:27:40;;;;;;;11.52;2.17;;;;;;;;;;4949649;28;20038;-66
2022/05/29 13:30:28;;;;;;;9.27;2.10;;;;;;;;;;4972764;28;20040;-64
2022/05/29 13:33:13;;;;;;;12.30;2.13;;;;;;;;;;4973924;28;20424;-67
2022/05/29 13:35:41;;;;;;;11.63;1.70;;;;;;;;;;4970924;28;20338;-66
2022/05/29 13:38:06;;;;;;;7.93;1.40;;;;;;;;;;4986874;28;20525;-64
2022/05/29 13:40:42;;;;;;;10.25;1.83;;;;;;;;;;4977763;28;20494;-66
2022/05/29 13:43:19;;;;;;;10.98;1.90;;;;;;;;;;5006830;28;20297;-66
2022/05/29 13:45:45;;;;;;;9.88;1.30;;;;;;;;;;4992676;28;20433;-65
2022/05/29 13:48:29;;;;;;;8.10;1.40;;;;;;;;;;4989121;28;20364;-66
2022/05/29 13:50:57;;;;;;;11.18;1.45;;;;;;;;;;4978519;28;20265;-67
2022/05/29 13:53:35;;;;;;;7.93;1.73;;;;;;;;;;4991820;28;20773;-63
2022/05/29 13:56:02;;;;;;;13.10;1.55;;;;;;;;;;4981571;28;20769;-65
2022/05/29 14:04:06;;;;;;;7.95;1.55;;;;;;;;;;4984002;28;20592;-63
2022/05/29 14:06:36;;;;;;;10.57;1.55;;;;;;;;;;4962725;28;20076;-66
2022/05/29 14:09:07;;;;;;;11.65;1.73;;;;;;;;;;4970677;28;21768;-66
2022/05/29 14:11:45;;;;;;;11.35;1.83;;;;;;;;;;4990670;28;20048;-65
2022/05/29 14:14:29;;;;;;;11.77;1.95;;;;;;;;;;4989122;28;20569;-63
2022/05/29 14:16:59;;;;;;;10.93;1.48;;;;;;;;;;4983032;28;20469;-64
2022/05/29 14:19:43;;;;;;;11.25;1.67;;;;;;;;;;4971478;28;20556;-65
2022/05/29 14:22:46;;;;;;;7.88;1.63;;;;;;;;;;4972239;28;20065;-64
2022/05/29 14:25:31;;;;;;;8.20;1.55;;;;;;;;;;4947690;28;20106;-62
2022/05/29 14:28:05;;;;;;;6.43;1.30;;;;;;;;;;4986177;28;20439;-65
2022/05/29 14:30:30;;;;;;;8.10;1.25;;;;;;;;;;4977008;28;20029;-64
2022/05/29 14:33:27;;;;;;;6.95;1.10;;;;;;;;;;4971315;28;20095;-65
2022/05/29 14:35:52;;;;;;;8.55;1.20;;;;;;;;;;4971307;28;20825;-65
2022/05/29 14:38:27;;;;;;;8.63;1.20;;;;;;;;;;4971124;28;20030;-63
2022/05/29 14:40:56;;;;;;;8.35;1.25;;;;;;;;;;4970065;28;20796;-66
2022/05/29 14:43:26;;;;;;;10.05;1.58;;;;;;;;;;4970722;28;20229;-66
2022/05/29 14:46:48;;;;;;;6.18;1.25;;;;;;;;;;4969485;28;20026;-67
2022/05/29 14:48:58;;;;;;;7.80;1.23;;;;;;;;;;4977066;28;20172;-65
2022/05/29 14:51:41;;;;;;;8.10;1.20;;;;;;;;;;4970783;28;20053;-65
2022/05/29 14:54:29;;;;;;;6.88;1.25;;;;;;;;;;4969632;28;20516;-64
2022/05/29 14:56:58;;;;;;;6.28;1.10;;;;;;;;;;4970837;28;20486;-63
2022/05/29 14:59:32;;;;;;;5.43;1.20;;;;;;;;;;4974961;28;20040;-64
2022/05/29 15:02:01;;;;;;;6.57;1.20;;;;;;;;;;4968770;28;20052;-64
2022/05/29 15:04:35;;;;;;;13.50;1.50;;;;;;;;;;4969934;28;20030;-64
2022/05/29 15:12:39;;;;;;;7.75;1.30;;;;;;;;;;4988549;28;20052;-65
2022/05/29 15:15:14;;;;;;;7.18;1.13;;;;;;;;;;5004164;28;20048;-67
2022/05/29 15:17:42;;;;;;;6.80;1.30;;;;;;;;;;4998931;28;20382;-65
2022/05/29 15:25:38;;;;;;;10.60;1.88;;;;;;;;;;4970019;28;20498;-65
2022/05/29 15:28:05;;;;;;;9.68;1.60;;;;;;;;;;4955330;28;20139;-63
2022/05/29 15:30:33;;;;;;;12.05;1.45;;;;;;;;;;4982464;28;20038;-66
2022/05/29 15:33:03;;;;;;;15.38;1.75;;;;;;;;;;4964885;28;20033;-63
2022/05/29 15:35:34;;;;;;;14.90;1.77;;;;;;;;;;4976941;28;20044;-65
2022/05/29 15:38:09;;;;;;;10.18;2.03;;;;;;;;;;4970160;28;20561;-64
2022/05/29 15:40:41;;;;;;;12.88;1.75;;;;;;;;;;4968071;28;20136;-64
2022/05/29 15:43:06;;;;;;;10.02;1.88;;;;;;;;;;4971945;28;20042;-63